sensor_id;sensor_type;location;lat;lon;timestamp;pressure;altitude;pressure_sealevel;temperature;humidity
12775;BME280;6451;42.630;23.382;2023-03-17T00:00:18;94537.34;;;8.41;100.00
12775;BME280;6451;42.630;23.382;2023-03-17T00:02:48;94503.34;;;7.64;100.00
12775;BME280;6451;42.630;23.382;2023-03-17T00:05:19;94539.94;;;8.29;100.00
12775;BME280;6451;42.630;23.382;2023-03-17T00:07:47;94518.72;;;8.10;100.00
12775;BME280;6451;42.630;23.382;2023-03-17T00:10:18;94516.63;;;8.16;100.00
12775;BME280;6451;42.630;23.382;2023-03-17T00:12:47;94526.53;;;8.41;100.00
12775;BME280;6451;42.630;23.382;2023-03-17T00:15:16;94533.22;;;8.35;100.00
12775;BME280;6451;42.630;23.382;2023-03-17T00:17:44;94514.66;;;7.95;100.00
12775;BME280;6451;42.630;23.382;2023-03-17T00:20:23;94533.47;;;8.21;100.00
12775;BME280;6451;42.630;23.382;2023-03-17T00:22:52;94540.34;;;7.63;100.00
12775;BME280;6451;42.630;23.382;2023-03-17T00:25:25;94537.41;;;7.39;100.00
12775;BME280;6451;42.630;23.382;2023-03-17T00:27:52;94524.56;;;7.74;100.00
12775;BME280;6451;42.630;23.382;2023-03-17T00:30:21;94525.44;;;7.57;100.00
12775;BME280;6451;42.630;23.382;2023-03-17T00:32:50;94523.72;;;7.52;100.00
12775;BME280;6451;42.630;23.382;2023-03-17T00:35:22;94534.28;;;7.75;100.00
12775;BME280;6451;42.630;23.382;2023-03-17T00:37:53;94537.38;;;8.62;100.00
12775;BME280;6451;42.630;23.382;2023-03-17T00:40:22;94527.53;;;7.51;100.00
12775;BME280;6451;42.630;23.382;2023-03-17T00:42:51;94532.69;;;8.12;100.00
12775;BME280;6451;42.630;23.382;2023-03-17T00:45:19;94472.41;;;7.91;100.00
12775;BME280;6451;42.630;23.382;2023-03-17T00:47:50;94531.56;;;8.72;100.00
12775;BME280;6451;42.630;23.382;2023-03-17T00:50:19;94503.75;;;8.13;100.00
12775;BME280;6451;42.630;23.382;2023-03-17T00:52:50;94536.44;;;8.58;100.00
12775;BME280;6451;42.630;23.382;2023-03-17T00:55:19;94534.03;;;8.35;100.00
12775;BME280;6451;42.630;23.382;2023-03-17T00:57:47;94531.78;;;8.67;100.00
12775;BME280;6451;42.630;23.382;2023-03-17T01:00:21;94539.19;;;8.49;100.00
12775;BME280;6451;42.630;23.382;2023-03-17T01:02:50;94545.28;;;8.08;100.00
12775;BME280;6451;42.630;23.382;2023-03-17T01:05:17;94513.03;;;8.03;100.00
12775;BME280;6451;42.630;23.382;2023-03-17T01:07:47;94538.91;;;8.42;100.00
12775;BME280;6451;42.630;23.382;2023-03-17T01:10:21;94548.25;;;8.15;100.00
12775;BME280;6451;42.630;23.382;2023-03-17T01:12:49;94537.75;;;8.22;100.00
12775;BME280;6451;42.630;23.382;2023-03-17T01:15:16;94533.22;;;7.97;100.00
12775;BME280;6451;42.630;23.382;2023-03-17T01:17:44;94553.56;;;8.03;100.00
12775;BME280;6451;42.630;23.382;2023-03-17T01:20:15;94466.63;;;8.30;100.00
12775;BME280;6451;42.630;23.382;2023-03-17T01:22:43;94548.97;;;8.62;100.00
12775;BME280;6451;42.630;23.382;2023-03-17T01:25:10;94543.59;;;8.24;100.00
12775;BME280;6451;42.630;23.382;2023-03-17T01:27:40;94547.75;;;8.22;100.00
12775;BME280;6451;42.630;23.382;2023-03-17T01:30:12;94547.53;;;8.86;100.00
12775;BME280;6451;42.630;23.382;2023-03-17T01:32:46;94553.72;;;8.45;100.00
12775;BME280;6451;42.630;23.382;2023-03-17T01:35:14;94547.03;;;8.33;100.00
12775;BME280;6451;42.630;23.382;2023-03-17T01:37:42;94559.41;;;8.52;100.00
12775;BME280;6451;42.630;23.382;2023-03-17T01:40:14;94550.28;;;8.56;100.00
12775;BME280;6451;42.630;23.382;2023-03-17T01:42:48;94545.13;;;8.34;100.00
12775;BME280;6451;42.630;23.382;2023-03-17T01:48:20;94544.03;;;8.35;100.00
12775;BME280;6451;42.630;23.382;2023-03-17T01:50:48;94544.56;;;8.28;100.00
12775;BME280;6451;42.630;23.382;2023-03-17T01:53:17;94538.16;;;8.62;100.00
12775;BME280;6451;42.630;23.382;2023-03-17T01:55:47;94555.34;;;8.67;100.00
12775;BME280;6451;42.630;23.382;2023-03-17T01:58:19;94554.00;;;8.94;100.00
12775;BME280;6451;42.630;23.382;2023-03-17T02:00:47;94543.75;;;9.20;100.00
12775;BME280;6451;42.630;23.382;2023-03-17T02:03:14;94553.75;;;9.28;99.93
12775;BME280;6451;42.630;23.382;2023-03-17T02:05:42;94545.03;;;9.02;99.57
12775;BME280;6451;42.630;23.382;2023-03-17T02:08:12;94548.94;;;9.46;96.81
12775;BME280;6451;42.630;23.382;2023-03-17T02:10:40;94572.16;;;9.14;97.83
12775;BME280;6451;42.630;23.382;2023-03-17T02:13:09;94569.66;;;8.88;100.00
12775;BME280;6451;42.630;23.382;2023-03-17T02:15:41;94571.16;;;9.18;97.50
12775;BME280;6451;42.630;23.382;2023-03-17T02:18:09;94540.97;;;8.75;98.02
12775;BME280;6451;42.630;23.382;2023-03-17T02:23:46;94576.00;;;8.92;96.36
12775;BME280;6451;42.630;23.382;2023-03-17T02:26:14;94578.56;;;9.30;96.20
12775;BME280;6451;42.630;23.382;2023-03-17T02:28:47;94584.13;;;9.13;98.28
12775;BME280;6451;42.630;23.382;2023-03-17T02:31:14;94573.75;;;9.15;95.68
12775;BME280;6451;42.630;23.382;2023-03-17T02:33:41;94544.44;;;9.17;95.26
12775;BME280;6451;42.630;23.382;2023-03-17T02:36:09;94586.31;;;9.86;93.97
12775;BME280;6451;42.630;23.382;2023-03-17T02:38:37;94585.84;;;9.51;94.63
12775;BME280;6451;42.630;23.382;2023-03-17T02:41:06;94587.94;;;9.99;92.38
12775;BME280;6451;42.630;23.382;2023-03-17T02:43:34;94575.25;;;9.45;92.21
12775;BME280;6451;42.630;23.382;2023-03-17T02:46:02;94592.00;;;9.60;92.89
12775;BME280;6451;42.630;23.382;2023-03-17T02:48:31;94598.50;;;9.46;93.40
12775;BME280;6451;42.630;23.382;2023-03-17T02:50:58;94597.16;;;9.86;90.53
12775;BME280;6451;42.630;23.382;2023-03-17T02:53:27;94593.44;;;10.36;87.90
12775;BME280;6451;42.630;23.382;2023-03-17T02:56:01;94598.84;;;10.23;87.63
12775;BME280;6451;42.630;23.382;2023-03-17T02:58:29;94601.56;;;10.36;85.98
12775;BME280;6451;42.630;23.382;2023-03-17T03:00:56;94591.47;;;9.79;87.99
12775;BME280;6451;42.630;23.382;2023-03-17T03:03:23;94584.13;;;10.12;86.26
12775;BME280;6451;42.630;23.382;2023-03-17T03:05:54;94596.72;;;10.53;85.51
12775;BME280;6451;42.630;23.382;2023-03-17T03:08:22;94591.50;;;10.73;84.51
12775;BME280;6451;42.630;23.382;2023-03-17T03:10:49;94592.47;;;10.19;83.50
12775;BME280;6451;42.630;23.382;2023-03-17T03:13:17;94611.09;;;10.09;83.99
12775;BME280;6451;42.630;23.382;2023-03-17T03:15:46;94611.97;;;10.46;83.43
12775;BME280;6451;42.630;23.382;2023-03-17T03:18:13;94591.41;;;10.45;81.31
12775;BME280;6451;42.630;23.382;2023-03-17T03:20:41;94610.50;;;10.03;83.91
12775;BME280;6451;42.630;23.382;2023-03-17T03:23:08;94619.38;;;9.46;84.34
12775;BME280;6451;42.630;23.382;2023-03-17T03:25:36;94612.00;;;10.00;85.53
12775;BME280;6451;42.630;23.382;2023-03-17T03:28:04;94572.50;;;9.79;83.03
12775;BME280;6451;42.630;23.382;2023-03-17T03:30:33;94623.41;;;10.06;83.72
12775;BME280;6451;42.630;23.382;2023-03-17T03:33:02;94614.38;;;9.69;82.83
12775;BME280;6451;42.630;23.382;2023-03-17T03:35:29;94621.84;;;10.05;81.56
12775;BME280;6451;42.630;23.382;2023-03-17T03:37:57;94623.13;;;9.87;82.88
12775;BME280;6451;42.630;23.382;2023-03-17T03:40:24;94629.84;;;9.68;82.42
12775;BME280;6451;42.630;23.382;2023-03-17T03:42:51;94622.28;;;10.19;82.37
12775;BME280;6451;42.630;23.382;2023-03-17T03:45:18;94600.44;;;10.37;80.85
12775;BME280;6451;42.630;23.382;2023-03-17T03:47:45;94604.16;;;9.87;81.69
12775;BME280;6451;42.630;23.382;2023-03-17T03:50:16;94626.50;;;9.84;82.71
12775;BME280;6451;42.630;23.382;2023-03-17T03:52:43;94629.59;;;9.94;83.94
12775;BME280;6451;42.630;23.382;2023-03-17T03:55:10;94625.19;;;10.35;83.03
12775;BME280;6451;42.630;23.382;2023-03-17T03:57:37;94643.84;;;10.37;83.24
12775;BME280;6451;42.630;23.382;2023-03-17T04:00:06;94639.44;;;10.44;81.56
12775;BME280;6451;42.630;23.382;2023-03-17T04:02:34;94629.31;;;9.75;85.53
12775;BME280;6451;42.630;23.382;2023-03-17T04:05:02;94621.88;;;9.30;86.43
12775;BME280;6451;42.630;23.382;2023-03-17T04:07:31;94638.50;;;9.83;87.35
12775;BME280;6451;42.630;23.382;2023-03-17T04:09:58;94618.00;;;9.73;86.65
12775;BME280;6451;42.630;23.382;2023-03-17T04:12:25;94643.28;;;10.10;85.82
12775;BME280;6451;42.630;23.382;2023-03-17T04:14:53;94643.94;;;9.95;86.92
12775;BME280;6451;42.630;23.382;2023-03-17T04:17:20;94637.47;;;9.87;86.80
12775;BME280;6451;42.630;23.382;2023-03-17T04:19:47;94641.09;;;9.91;87.16
12775;BME280;6451;42.630;23.382;2023-03-17T04:22:14;94668.78;;;9.22;88.69
12775;BME280;6451;42.630;23.382;2023-03-17T04:24:42;94674.94;;;9.02;89.78
12775;BME280;6451;42.630;23.382;2023-03-17T04:27:09;94667.78;;;9.06;92.20
12775;BME280;6451;42.630;23.382;2023-03-17T04:29:36;94666.66;;;9.48;91.90
12775;BME280;6451;42.630;23.382;2023-03-17T04:32:03;94658.22;;;9.29;89.68
12775;BME280;6451;42.630;23.382;2023-03-17T04:34:32;94662.56;;;9.42;92.03
12775;BME280;6451;42.630;23.382;2023-03-17T04:36:59;94672.59;;;9.63;91.90
12775;BME280;6451;42.630;23.382;2023-03-17T04:39:27;94649.09;;;10.21;88.78
12775;BME280;6451;42.630;23.382;2023-03-17T04:41:56;94668.25;;;10.03;86.70
12775;BME280;6451;42.630;23.382;2023-03-17T04:44:24;94662.44;;;10.26;85.43
12775;BME280;6451;42.630;23.382;2023-03-17T04:46:51;94665.28;;;9.96;85.20
12775;BME280;6451;42.630;23.382;2023-03-17T04:49:18;94634.00;;;9.66;85.92
12775;BME280;6451;42.630;23.382;2023-03-17T04:51:45;94678.38;;;9.94;84.90
12775;BME280;6451;42.630;23.382;2023-03-17T04:54:13;94677.16;;;10.04;85.68
12775;BME280;6451;42.630;23.382;2023-03-17T04:56:41;94682.03;;;9.98;85.86
12775;BME280;6451;42.630;23.382;2023-03-17T04:59:10;94661.47;;;10.10;84.65
12775;BME280;6451;42.630;23.382;2023-03-17T05:01:38;94684.91;;;9.60;86.27
12775;BME280;6451;42.630;23.382;2023-03-17T05:04:05;94680.81;;;9.75;88.21
12775;BME280;6451;42.630;23.382;2023-03-17T05:06:32;94681.97;;;9.65;87.20
12775;BME280;6451;42.630;23.382;2023-03-17T05:09:01;94668.19;;;10.12;85.88
12775;BME280;6451;42.630;23.382;2023-03-17T05:11:28;94683.44;;;10.17;85.35
12775;BME280;6451;42.630;23.382;2023-03-17T05:13:55;94695.28;;;10.12;85.06
12775;BME280;6451;42.630;23.382;2023-03-17T05:16:24;94709.50;;;10.30;86.52
12775;BME280;6451;42.630;23.382;2023-03-17T05:18:51;94703.19;;;10.38;85.20
12775;BME280;6451;42.630;23.382;2023-03-17T05:21:19;94712.06;;;10.26;85.33
12775;BME280;6451;42.630;23.382;2023-03-17T05:23:46;94684.50;;;10.03;83.53
12775;BME280;6451;42.630;23.382;2023-03-17T05:26:13;94722.19;;;9.96;85.08
12775;BME280;6451;42.630;23.382;2023-03-17T05:28:40;94705.81;;;9.93;85.08
12775;BME280;6451;42.630;23.382;2023-03-17T05:31:07;94661.97;;;9.58;83.45
12775;BME280;6451;42.630;23.382;2023-03-17T05:33:35;94731.59;;;10.20;85.70
12775;BME280;6451;42.630;23.382;2023-03-17T05:36:03;94705.91;;;10.17;85.51
12775;BME280;6451;42.630;23.382;2023-03-17T05:38:30;94731.91;;;10.18;84.45
12775;BME280;6451;42.630;23.382;2023-03-17T05:40:57;94670.38;;;9.44;86.06
12775;BME280;6451;42.630;23.382;2023-03-17T05:43:24;94704.06;;;9.76;86.12
12775;BME280;6451;42.630;23.382;2023-03-17T05:45:51;94728.91;;;9.78;87.01
12775;BME280;6451;42.630;23.382;2023-03-17T05:48:18;94735.28;;;10.15;85.29
12775;BME280;6451;42.630;23.382;2023-03-17T05:50:47;94726.19;;;9.78;85.62
12775;BME280;6451;42.630;23.382;2023-03-17T05:53:14;94735.63;;;10.14;86.52
12775;BME280;6451;42.630;23.382;2023-03-17T05:55:42;94735.38;;;11.09;82.76
12775;BME280;6451;42.630;23.382;2023-03-17T05:58:09;94739.53;;;10.04;85.30
12775;BME280;6451;42.630;23.382;2023-03-17T06:00:36;94729.28;;;10.10;84.44
12775;BME280;6451;42.630;23.382;2023-03-17T06:03:03;94741.78;;;10.02;84.76
12775;BME280;6451;42.630;23.382;2023-03-17T06:05:30;94754.09;;;9.99;83.96
12775;BME280;6451;42.630;23.382;2023-03-17T06:08:00;94749.78;;;10.52;82.64
12775;BME280;6451;42.630;23.382;2023-03-17T06:10:27;94750.28;;;10.34;83.33
12775;BME280;6451;42.630;23.382;2023-03-17T06:12:55;94772.78;;;10.34;82.78
12775;BME280;6451;42.630;23.382;2023-03-17T06:15:23;94769.09;;;9.97;83.75
12775;BME280;6451;42.630;23.382;2023-03-17T06:17:54;94776.22;;;9.60;85.67
12775;BME280;6451;42.630;23.382;2023-03-17T06:20:21;94786.16;;;10.39;83.39
12775;BME280;6451;42.630;23.382;2023-03-17T06:22:47;94791.09;;;9.95;83.81
12775;BME280;6451;42.630;23.382;2023-03-17T06:25:17;94793.44;;;10.26;82.86
12775;BME280;6451;42.630;23.382;2023-03-17T06:27:44;94794.06;;;10.02;83.47
12775;BME280;6451;42.630;23.382;2023-03-17T06:30:11;94768.06;;;9.89;83.35
12775;BME280;6451;42.630;23.382;2023-03-17T06:32:38;94791.16;;;10.49;81.14
12775;BME280;6451;42.630;23.382;2023-03-17T06:35:06;94790.91;;;10.00;82.51
12775;BME280;6451;42.630;23.382;2023-03-17T06:37:34;94778.41;;;9.66;82.76
12775;BME280;6451;42.630;23.382;2023-03-17T06:40:01;94793.63;;;10.21;84.47
12775;BME280;6451;42.630;23.382;2023-03-17T06:42:31;94766.59;;;10.13;82.23
12775;BME280;6451;42.630;23.382;2023-03-17T06:44:58;94783.25;;;10.23;83.18
12775;BME280;6451;42.630;23.382;2023-03-17T06:47:25;94805.97;;;10.10;82.79
12775;BME280;6451;42.630;23.382;2023-03-17T06:49:52;94805.50;;;10.83;81.68
12775;BME280;6451;42.630;23.382;2023-03-17T06:52:19;94808.19;;;10.71;80.57
12775;BME280;6451;42.630;23.382;2023-03-17T06:54:46;94804.63;;;10.91;79.75
12775;BME280;6451;42.630;23.382;2023-03-17T06:57:14;94800.31;;;10.90;79.62
12775;BME280;6451;42.630;23.382;2023-03-17T06:59:43;94810.59;;;10.84;78.77
12775;BME280;6451;42.630;23.382;2023-03-17T07:02:10;94796.84;;;11.14;78.00
12775;BME280;6451;42.630;23.382;2023-03-17T07:04:37;94793.06;;;11.80;77.64
12775;BME280;6451;42.630;23.382;2023-03-17T07:07:04;94801.81;;;11.12;79.43
12775;BME280;6451;42.630;23.382;2023-03-17T07:09:32;94798.16;;;10.83;79.55
12775;BME280;6451;42.630;23.382;2023-03-17T07:12:01;94801.13;;;11.03;79.20
12775;BME280;6451;42.630;23.382;2023-03-17T07:14:31;94799.84;;;10.76;77.98
12775;BME280;6451;42.630;23.382;2023-03-17T07:17:01;94808.19;;;10.71;78.54
12775;BME280;6451;42.630;23.382;2023-03-17T07:19:28;94813.34;;;10.64;78.28
12775;BME280;6451;42.630;23.382;2023-03-17T07:21:55;94787.38;;;10.75;78.79
12775;BME280;6451;42.630;23.382;2023-03-17T07:24:22;94807.59;;;11.23;76.63
12775;BME280;6451;42.630;23.382;2023-03-17T07:26:49;94807.59;;;11.23;75.91
12775;BME280;6451;42.630;23.382;2023-03-17T07:29:16;94812.53;;;10.96;76.36
12775;BME280;6451;42.630;23.382;2023-03-17T07:31:44;94802.84;;;11.56;75.50
12775;BME280;6451;42.630;23.382;2023-03-17T07:34:12;94818.63;;;10.93;74.94
12775;BME280;6451;42.630;23.382;2023-03-17T07:36:40;94817.03;;;10.80;75.72
12775;BME280;6451;42.630;23.382;2023-03-17T07:39:07;94813.41;;;10.88;76.56
12775;BME280;6451;42.630;23.382;2023-03-17T07:41:35;94820.91;;;10.91;77.32
12775;BME280;6451;42.630;23.382;2023-03-17T07:44:02;94796.41;;;11.12;76.16
12775;BME280;6451;42.630;23.382;2023-03-17T07:46:29;94819.47;;;11.79;75.08
12775;BME280;6451;42.630;23.382;2023-03-17T07:48:57;94833.88;;;11.67;75.01
12775;BME280;6451;42.630;23.382;2023-03-17T07:51:25;94826.16;;;11.94;73.64
12775;BME280;6451;42.630;23.382;2023-03-17T07:53:53;94800.81;;;11.65;74.57
12775;BME280;6451;42.630;23.382;2023-03-17T07:56:29;94819.81;;;11.78;74.00
12775;BME280;6451;42.630;23.382;2023-03-17T07:58:56;94771.56;;;11.87;72.25
12775;BME280;6451;42.630;23.382;2023-03-17T08:01:42;94837.63;;;11.51;75.14
12775;BME280;6451;42.630;23.382;2023-03-17T08:04:09;94829.47;;;11.38;75.06
12775;BME280;6451;42.630;23.382;2023-03-17T08:06:39;94834.91;;;11.87;74.77
12775;BME280;6451;42.630;23.382;2023-03-17T08:09:09;94823.25;;;11.50;76.18
12775;BME280;6451;42.630;23.382;2023-03-17T08:11:37;94841.34;;;12.47;74.00
12775;BME280;6451;42.630;23.382;2023-03-17T08:14:04;94825.72;;;11.92;74.08
12775;BME280;6451;42.630;23.382;2023-03-17T08:16:32;94795.81;;;11.31;75.11
12775;BME280;6451;42.630;23.382;2023-03-17T08:18:59;94836.25;;;11.57;74.41
12775;BME280;6451;42.630;23.382;2023-03-17T08:21:28;94836.59;;;11.31;76.13
12775;BME280;6451;42.630;23.382;2023-03-17T08:23:57;94837.19;;;12.38;72.39
12775;BME280;6451;42.630;23.382;2023-03-17T08:26:24;94839.09;;;11.97;72.73
12775;BME280;6451;42.630;23.382;2023-03-17T08:28:51;94842.03;;;11.92;72.81
12775;BME280;6451;42.630;23.382;2023-03-17T08:31:20;94840.09;;;12.05;74.70
12775;BME280;6451;42.630;23.382;2023-03-17T08:33:51;94844.00;;;12.32;73.60
12775;BME280;6451;42.630;23.382;2023-03-17T08:36:19;94842.63;;;12.38;73.08
12775;BME280;6451;42.630;23.382;2023-03-17T08:38:46;94822.28;;;12.19;73.50
12775;BME280;6451;42.630;23.382;2023-03-17T08:41:16;94841.91;;;12.81;73.26
12775;BME280;6451;42.630;23.382;2023-03-17T08:43:44;94837.03;;;12.46;72.48
12775;BME280;6451;42.630;23.382;2023-03-17T08:46:14;94837.91;;;12.78;72.96
12775;BME280;6451;42.630;23.382;2023-03-17T08:48:42;94841.59;;;12.42;70.54
12775;BME280;6451;42.630;23.382;2023-03-17T08:51:09;94839.53;;;12.95;70.60
12775;BME280;6451;42.630;23.382;2023-03-17T08:53:36;94830.31;;;12.16;70.99
12775;BME280;6451;42.630;23.382;2023-03-17T08:56:04;94843.56;;;12.86;68.27
12775;BME280;6451;42.630;23.382;2023-03-17T08:58:34;94844.63;;;13.41;66.99
12775;BME280;6451;42.630;23.382;2023-03-17T09:01:02;94840.78;;;13.73;66.38
12775;BME280;6451;42.630;23.382;2023-03-17T09:03:30;94841.69;;;13.97;64.47
12775;BME280;6451;42.630;23.382;2023-03-17T09:05:57;94838.78;;;14.05;62.71
12775;BME280;6451;42.630;23.382;2023-03-17T09:08:24;94831.25;;;14.18;62.22
12775;BME280;6451;42.630;23.382;2023-03-17T09:10:52;94820.97;;;14.11;61.41
12775;BME280;6451;42.630;23.382;2023-03-17T09:13:19;94842.94;;;13.83;62.53
12775;BME280;6451;42.630;23.382;2023-03-17T09:15:48;94824.09;;;13.94;60.22
12775;BME280;6451;42.630;23.382;2023-03-17T09:18:16;94840.06;;;13.76;59.75
12775;BME280;6451;42.630;23.382;2023-03-17T09:20:42;94832.75;;;13.64;60.17
12775;BME280;6451;42.630;23.382;2023-03-17T09:23:10;94828.81;;;14.32;57.89
12775;BME280;6451;42.630;23.382;2023-03-17T09:25:38;94825.13;;;14.60;57.25
12775;BME280;6451;42.630;23.382;2023-03-17T09:28:06;94829.22;;;14.69;54.05
12775;BME280;6451;42.630;23.382;2023-03-17T09:30:33;94841.72;;;14.70;54.38
12775;BME280;6451;42.630;23.382;2023-03-17T09:33:02;94841.38;;;14.53;55.02
12775;BME280;6451;42.630;23.382;2023-03-17T09:35:30;94825.28;;;14.12;54.13
12775;BME280;6451;42.630;23.382;2023-03-17T09:37:57;94793.91;;;13.87;54.12
12775;BME280;6451;42.630;23.382;2023-03-17T09:40:30;94817.81;;;13.74;53.55
12775;BME280;6451;42.630;23.382;2023-03-17T09:43:05;94848.06;;;14.20;54.30
12775;BME280;6451;42.630;23.382;2023-03-17T09:45:37;94847.47;;;14.46;55.02
12775;BME280;6451;42.630;23.382;2023-03-17T09:48:33;94840.97;;;14.35;54.50
12775;BME280;6451;42.630;23.382;2023-03-17T09:51:03;94854.16;;;15.07;52.61
12775;BME280;6451;42.630;23.382;2023-03-17T09:53:33;94842.34;;;14.44;51.67
12775;BME280;6451;42.630;23.382;2023-03-17T09:56:06;94854.84;;;14.81;51.60
12775;BME280;6451;42.630;23.382;2023-03-17T09:58:38;94845.03;;;14.60;51.74
12775;BME280;6451;42.630;23.382;2023-03-17T10:01:09;94844.53;;;14.55;51.52
12775;BME280;6451;42.630;23.382;2023-03-17T10:03:39;94838.13;;;14.86;51.52
12775;BME280;6451;42.630;23.382;2023-03-17T10:06:26;94855.09;;;14.56;51.33
12775;BME280;6451;42.630;23.382;2023-03-17T10:09:01;94847.13;;;14.48;52.64
12775;BME280;6451;42.630;23.382;2023-03-17T10:11:36;94861.88;;;13.60;53.54
12775;BME280;6451;42.630;23.382;2023-03-17T10:14:15;94856.03;;;14.83;51.99
12775;BME280;6451;42.630;23.382;2023-03-17T10:16:49;94858.91;;;14.90;50.51
12775;BME280;6451;42.630;23.382;2023-03-17T10:19:26;94850.81;;;14.20;52.15
12775;BME280;6451;42.630;23.382;2023-03-17T10:21:57;94844.56;;;14.39;51.31
12775;BME280;6451;42.630;23.382;2023-03-17T10:24:28;94854.75;;;14.58;50.60
12775;BME280;6451;42.630;23.382;2023-03-17T10:26:59;94857.44;;;14.38;50.67
12775;BME280;6451;42.630;23.382;2023-03-17T10:29:29;94858.91;;;14.71;50.58
12775;BME280;6451;42.630;23.382;2023-03-17T10:31:57;94847.44;;;14.27;50.48
12775;BME280;6451;42.630;23.382;2023-03-17T10:34:27;94848.22;;;14.27;50.39
12775;BME280;6451;42.630;23.382;2023-03-17T10:36:59;94840.06;;;14.85;49.82
12775;BME280;6451;42.630;23.382;2023-03-17T10:39:26;94844.31;;;14.83;48.61
12775;BME280;6451;42.630;23.382;2023-03-17T10:41:56;94843.69;;;14.89;48.43
12775;BME280;6451;42.630;23.382;2023-03-17T10:44:42;94842.84;;;15.08;49.22
12775;BME280;6451;42.630;23.382;2023-03-17T10:47:22;94840.66;;;15.17;47.38
12775;BME280;6451;42.630;23.382;2023-03-17T10:49:51;94835.53;;;15.58;47.32
12775;BME280;6451;42.630;23.382;2023-03-17T10:52:21;94840.69;;;15.86;46.48
12775;BME280;6451;42.630;23.382;2023-03-17T10:54:49;94834.38;;;15.82;45.63
12775;BME280;6451;42.630;23.382;2023-03-17T10:57:17;94820.16;;;16.56;44.67
12775;BME280;6451;42.630;23.382;2023-03-17T10:59:48;94810.09;;;16.33;44.57
12775;BME280;6451;42.630;23.382;2023-03-17T11:02:24;94825.47;;;16.42;44.05
12775;BME280;6451;42.630;23.382;2023-03-17T11:04:58;94826.69;;;16.48;43.33
12775;BME280;6451;42.630;23.382;2023-03-17T11:07:34;94815.31;;;16.72;42.83
12775;BME280;6451;42.630;23.382;2023-03-17T11:10:14;94812.56;;;16.72;42.90
12775;BME280;6451;42.630;23.382;2023-03-17T11:12:42;94813.31;;;16.69;43.98
12775;BME280;6451;42.630;23.382;2023-03-17T11:15:13;94805.09;;;16.69;42.98
12775;BME280;6451;42.630;23.382;2023-03-17T11:17:50;94808.41;;;17.22;43.84
12775;BME280;6451;42.630;23.382;2023-03-17T11:20:36;94790.56;;;17.02;44.09
12775;BME280;6451;42.630;23.382;2023-03-17T11:23:11;94791.38;;;16.09;44.01
12775;BME280;6451;42.630;23.382;2023-03-17T11:25:43;94789.31;;;16.62;43.86
12775;BME280;6451;42.630;23.382;2023-03-17T11:28:17;94798.50;;;16.74;43.41
12775;BME280;6451;42.630;23.382;2023-03-17T11:30:50;94806.38;;;16.19;43.63
12775;BME280;6451;42.630;23.382;2023-03-17T11:33:29;94809.75;;;16.38;43.70
12775;BME280;6451;42.630;23.382;2023-03-17T11:36:03;94812.94;;;16.71;43.16
12775;BME280;6451;42.630;23.382;2023-03-17T11:38:36;94806.31;;;17.09;42.46
12775;BME280;6451;42.630;23.382;2023-03-17T11:41:31;94791.91;;;17.63;41.05
12775;BME280;6451;42.630;23.382;2023-03-17T11:47:02;94794.81;;;17.33;41.78
12775;BME280;6451;42.630;23.382;2023-03-17T11:49:36;94796.44;;;17.41;40.55
12775;BME280;6451;42.630;23.382;2023-03-17T11:52:12;94793.81;;;16.78;40.81
12775;BME280;6451;42.630;23.382;2023-03-17T11:54:47;94769.13;;;16.10;41.98
12775;BME280;6451;42.630;23.382;2023-03-17T11:57:20;94781.56;;;16.68;41.37
12775;BME280;6451;42.630;23.382;2023-03-17T11:59:51;94785.91;;;15.82;42.48
12775;BME280;6451;42.630;23.382;2023-03-17T12:02:23;94792.44;;;15.74;42.60
12775;BME280;6451;42.630;23.382;2023-03-17T12:04:55;94782.53;;;16.49;42.23
12775;BME280;6451;42.630;23.382;2023-03-17T12:07:26;94768.47;;;15.94;42.49
12775;BME280;6451;42.630;23.382;2023-03-17T12:10:05;94772.69;;;16.15;42.26
12775;BME280;6451;42.630;23.382;2023-03-17T12:12:37;94787.13;;;16.72;41.55
12775;BME280;6451;42.630;23.382;2023-03-17T12:15:12;94783.59;;;16.41;41.29
12775;BME280;6451;42.630;23.382;2023-03-17T12:17:46;94731.66;;;15.39;43.11
12775;BME280;6451;42.630;23.382;2023-03-17T12:20:17;94705.78;;;15.82;42.03
12775;BME280;6451;42.630;23.382;2023-03-17T12:22:52;94781.19;;;16.09;42.61
12775;BME280;6451;42.630;23.382;2023-03-17T12:25:24;94762.34;;;15.51;43.01
12775;BME280;6451;42.630;23.382;2023-03-17T12:27:58;94755.44;;;16.44;41.99
12775;BME280;6451;42.630;23.382;2023-03-17T12:30:31;94762.88;;;16.44;41.99
12775;BME280;6451;42.630;23.382;2023-03-17T12:33:09;94775.00;;;16.43;42.48
12775;BME280;6451;42.630;23.382;2023-03-17T12:35:37;94761.69;;;16.41;42.27
12775;BME280;6451;42.630;23.382;2023-03-17T12:38:10;94765.22;;;17.12;42.62
12775;BME280;6451;42.630;23.382;2023-03-17T12:40:53;94709.91;;;17.55;41.76
12775;BME280;6451;42.630;23.382;2023-03-17T12:43:35;94766.66;;;16.99;41.93
12775;BME280;6451;42.630;23.382;2023-03-17T12:46:28;94768.69;;;16.08;43.63
12775;BME280;6451;42.630;23.382;2023-03-17T12:49:25;94764.84;;;16.47;42.82
12775;BME280;6451;42.630;23.382;2023-03-17T12:52:01;94772.25;;;16.43;43.55
12775;BME280;6451;42.630;23.382;2023-03-17T12:54:35;94768.75;;;15.85;42.67
12775;BME280;6451;42.630;23.382;2023-03-17T12:57:05;94770.44;;;16.54;42.07
12775;BME280;6451;42.630;23.382;2023-03-17T12:59:41;94771.09;;;15.61;42.47
12775;BME280;6451;42.630;23.382;2023-03-17T13:02:20;94772.31;;;15.17;42.95
12775;BME280;6451;42.630;23.382;2023-03-17T13:04:51;94759.31;;;15.56;43.07
12775;BME280;6451;42.630;23.382;2023-03-17T13:07:23;94770.31;;;15.37;43.74
12775;BME280;6451;42.630;23.382;2023-03-17T13:10:11;94772.53;;;15.05;43.97
12775;BME280;6451;42.630;23.382;2023-03-17T13:13:04;94774.16;;;15.10;42.71
12775;BME280;6451;42.630;23.382;2023-03-17T13:15:52;94776.25;;;14.55;44.12
12775;BME280;6451;42.630;23.382;2023-03-17T13:18:45;94772.03;;;14.99;44.32
12775;BME280;6451;42.630;23.382;2023-03-17T13:21:17;94777.50;;;14.57;45.89
12775;BME280;6451;42.630;23.382;2023-03-17T13:23:46;94777.63;;;13.90;47.07
12775;BME280;6451;42.630;23.382;2023-03-17T13:26:18;94778.84;;;14.28;47.02